createdAt,value
2023-04-18T00:00:27.779Z,8.79
2023-04-18T00:02:55.321Z,8.68
2023-04-18T00:05:22.326Z,8.39
2023-04-18T00:07:49.001Z,8.41
2023-04-18T00:10:15.576Z,8.48
2023-04-18T00:12:42.999Z,8.45
2023-04-18T00:15:10.431Z,8.54
2023-04-18T00:17:40.377Z,8.51
2023-04-18T00:20:10.529Z,8.54
2023-04-18T00:22:42.547Z,8.45
2023-04-18T00:25:11.103Z,8.43
2023-04-18T00:27:38.824Z,8.27
2023-04-18T00:30:06.759Z,8.33
2023-04-18T00:32:33.290Z,8.39
2023-04-18T00:34:59.861Z,8.32
2023-04-18T00:37:26.381Z,8.18
2023-04-18T00:39:53.945Z,8.26
2023-04-18T00:42:25.443Z,8.18
2023-04-18T00:44:51.888Z,8.02
2023-04-18T00:47:18.398Z,7.98
2023-04-18T00:49:45.577Z,7.74
2023-04-18T00:52:12.622Z,7.86
2023-04-18T00:54:40.895Z,7.74
2023-04-18T00:57:07.986Z,7.79
2023-04-18T00:59:35.626Z,7.82
2023-04-18T01:02:03.870Z,7.85
2023-04-18T01:04:32.184Z,7.85
2023-04-18T01:06:59.445Z,7.76
2023-04-18T01:09:26.166Z,7.84
2023-04-18T01:11:52.775Z,7.74
2023-04-18T01:14:20.506Z,7.55
2023-04-18T01:16:48.584Z,7.70
2023-04-18T01:19:17.393Z,7.66
2023-04-18T01:21:44.129Z,7.60
2023-04-18T01:24:12.647Z,7.51
2023-04-18T01:26:39.787Z,7.50
2023-04-18T01:29:06.759Z,7.33
2023-04-18T01:31:37.663Z,7.45
2023-04-18T01:34:05.288Z,7.55
2023-04-18T01:36:32.651Z,7.29
2023-04-18T01:38:59.634Z,7.37
2023-04-18T01:41:29.005Z,7.44
2023-04-18T01:43:55.506Z,7.18
2023-04-18T01:46:21.981Z,7.44
2023-04-18T01:48:48.498Z,7.19
2023-04-18T01:51:15.135Z,7.17
2023-04-18T01:53:41.988Z,7.18
2023-04-18T01:56:10.138Z,7.16
2023-04-18T01:58:37.531Z,7.14
2023-04-18T02:01:04.379Z,7.15
2023-04-18T02:03:31.115Z,7.03
2023-04-18T02:05:57.748Z,7.18
2023-04-18T02:08:24.186Z,7.00
2023-04-18T02:10:50.804Z,7.10
2023-04-18T02:13:17.338Z,7.02
2023-04-18T02:15:45.875Z,7.03
2023-04-18T02:18:12.408Z,6.94
2023-04-18T02:20:39.239Z,7.01
2023-04-18T02:23:05.833Z,6.95
2023-04-18T02:25:32.560Z,6.83
2023-04-18T02:27:59.286Z,6.79
2023-04-18T02:30:25.950Z,6.64
2023-04-18T02:32:53.902Z,6.70
2023-04-18T02:35:21.328Z,6.73
2023-04-18T02:37:47.860Z,6.88
2023-04-18T02:40:14.552Z,6.68
2023-04-18T02:42:41.151Z,6.63
2023-04-18T02:45:08.937Z,6.76
2023-04-18T02:47:46.990Z,6.60
2023-04-18T02:50:18.145Z,6.52
2023-04-18T02:52:44.730Z,6.59
2023-04-18T02:55:11.162Z,6.44
2023-04-18T02:57:37.675Z,6.45
2023-04-18T03:00:06.458Z,6.58
2023-04-18T03:02:33.006Z,6.53
2023-04-18T03:04:59.638Z,6.50
2023-04-18T03:07:26.109Z,6.37
2023-04-18T03:09:52.538Z,6.39
2023-04-18T03:12:19.039Z,6.52
2023-04-18T03:14:45.599Z,6.47
2023-04-18T03:17:12.024Z,6.47
2023-04-18T03:19:38.462Z,6.38
2023-04-18T03:22:05.089Z,6.41
2023-04-18T03:24:31.565Z,6.45
2023-04-18T03:26:59.812Z,6.18
2023-04-18T03:29:26.558Z,6.09
2023-04-18T03:31:52.987Z,6.25
2023-04-18T03:34:19.454Z,6.07
2023-04-18T03:36:47.981Z,6.31
2023-04-18T03:39:15.003Z,6.16
2023-04-18T03:41:41.487Z,6.23
2023-04-18T03:44:08.919Z,6.16
2023-04-18T03:46:35.675Z,6.21
2023-04-18T03:49:02.159Z,6.17
2023-04-18T03:51:33.311Z,6.15
2023-04-18T03:53:59.840Z,6.09
2023-04-18T03:56:26.985Z,6.02
2023-04-18T03:58:53.404Z,6.22
2023-04-18T04:01:19.887Z,6.10
2023-04-18T04:03:46.501Z,6.23
2023-04-18T04:06:13.240Z,6.05
2023-04-18T04:08:39.707Z,6.05
2023-04-18T04:11:06.119Z,6.07
2023-04-18T04:13:32.614Z,6.29
2023-04-18T04:15:59.105Z,6.33
2023-04-18T04:18:30.935Z,6.27
2023-04-18T04:20:59.199Z,6.45
2023-04-18T04:23:26.818Z,6.53
2023-04-18T04:25:53.883Z,6.46
2023-04-18T04:28:23.945Z,6.34
2023-04-18T04:30:53.860Z,6.49
2023-04-18T04:33:21.102Z,6.43
2023-04-18T04:35:47.859Z,6.47
2023-04-18T04:38:15.411Z,6.41
2023-04-18T04:40:42.759Z,6.52
2023-04-18T04:43:16.472Z,6.66
2023-04-18T04:45:44.674Z,6.63
2023-04-18T04:48:11.343Z,6.70
2023-04-18T04:50:38.889Z,6.71
2023-04-18T04:53:06.387Z,6.77
2023-04-18T04:55:33.359Z,6.86
2023-04-18T04:58:00.167Z,6.88
2023-04-18T05:00:26.724Z,6.89
2023-04-18T05:02:55.874Z,6.97
2023-04-18T05:05:22.733Z,7.01
2023-04-18T05:07:49.189Z,6.97
2023-04-18T05:10:15.689Z,6.98
2023-04-18T05:12:42.089Z,6.93
2023-04-18T05:15:08.823Z,7.00
2023-04-18T05:17:35.441Z,7.15
2023-04-18T05:20:02.207Z,7.10
2023-04-18T05:22:28.675Z,7.13
2023-04-18T05:24:55.332Z,7.22
2023-04-18T05:27:21.899Z,7.17
2023-04-18T05:29:50.218Z,6.99
2023-04-18T05:32:16.825Z,7.25
2023-04-18T05:34:43.372Z,7.22
2023-04-18T05:37:09.893Z,7.38
2023-04-18T05:39:36.597Z,7.14
2023-04-18T05:42:03.400Z,7.20
2023-04-18T05:44:30.324Z,7.34
2023-04-18T05:46:56.720Z,7.42
2023-04-18T05:49:23.719Z,7.45
2023-04-18T05:51:50.635Z,7.52
2023-04-18T05:54:17.173Z,7.40
2023-04-18T05:56:43.764Z,7.43
2023-04-18T05:59:10.798Z,7.56
2023-04-18T06:01:37.456Z,7.73
2023-04-18T06:04:04.162Z,7.73
2023-04-18T06:06:31.474Z,7.75
2023-04-18T06:08:58.030Z,7.77
2023-04-18T06:11:24.629Z,7.71
2023-04-18T06:13:51.024Z,7.83
2023-04-18T06:16:17.715Z,7.95
2023-04-18T06:18:44.188Z,7.90
2023-04-18T06:21:10.722Z,8.11
2023-04-18T06:23:38.476Z,8.33
2023-04-18T06:26:05.063Z,8.37
2023-04-18T06:28:31.496Z,8.34
2023-04-18T06:30:58.022Z,8.30
2023-04-18T06:33:24.515Z,8.24
2023-04-18T06:35:51.105Z,8.15
2023-04-18T06:38:17.651Z,8.32
2023-04-18T06:40:44.112Z,8.31
2023-04-18T06:43:10.795Z,8.25
2023-04-18T06:45:37.318Z,8.30
2023-04-18T06:48:04.233Z,8.36
2023-04-18T06:50:31.334Z,8.35
2023-04-18T06:52:57.760Z,8.37
2023-04-18T06:55:24.325Z,8.61
2023-04-18T06:57:50.751Z,8.60
2023-04-18T07:00:17.436Z,8.72
2023-04-18T07:02:44.211Z,8.86
2023-04-18T07:05:10.868Z,8.73
2023-04-18T07:07:37.749Z,8.85
2023-04-18T07:10:04.758Z,8.85
2023-04-18T07:12:31.300Z,8.91
2023-04-18T07:14:57.876Z,8.97
2023-04-18T07:17:24.370Z,9.28
2023-04-18T07:19:50.847Z,9.17
2023-04-18T07:22:17.292Z,9.62
2023-04-18T07:24:44.132Z,9.98
2023-04-18T07:27:10.600Z,10.09
2023-04-18T07:29:37.069Z,10.84
2023-04-18T07:32:04.043Z,10.31
2023-04-18T07:34:31.558Z,10.99
2023-04-18T07:36:58.118Z,11.66
2023-04-18T07:39:24.658Z,11.53
2023-04-18T07:41:51.156Z,10.66
2023-04-18T07:44:18.330Z,11.23
2023-04-18T07:46:45.002Z,11.76
2023-04-18T07:49:11.722Z,12.33
2023-04-18T07:51:38.410Z,12.91
2023-04-18T07:54:04.882Z,12.75
2023-04-18T07:56:31.396Z,13.42
2023-04-18T07:58:57.882Z,13.20
2023-04-18T08:01:27.062Z,13.81
2023-04-18T08:03:55.068Z,13.65
2023-04-18T08:06:21.854Z,14.07
2023-04-18T08:08:48.435Z,14.04
2023-04-18T08:11:14.911Z,14.39
2023-04-18T08:13:41.470Z,14.02
2023-04-18T08:16:08.779Z,14.51
2023-04-18T08:18:36.039Z,14.91
2023-04-18T08:21:02.587Z,14.60
2023-04-18T08:23:29.031Z,15.07
2023-04-18T08:25:55.519Z,15.01
2023-04-18T08:28:22.046Z,14.50
2023-04-18T08:30:49.171Z,13.23
2023-04-18T08:33:16.436Z,12.50
2023-04-18T08:35:43.135Z,12.03
2023-04-18T08:38:09.798Z,12.09
2023-04-18T08:40:37.368Z,13.59
2023-04-18T08:43:09.377Z,14.42
2023-04-18T08:45:36.885Z,12.87
2023-04-18T08:48:04.013Z,13.14
2023-04-18T08:50:30.877Z,14.07
2023-04-18T08:52:59.771Z,14.49
2023-04-18T08:55:26.356Z,13.85
2023-04-18T08:57:55.119Z,14.77
2023-04-18T09:00:22.763Z,14.59
2023-04-18T09:02:49.604Z,15.05
2023-04-18T09:05:19.149Z,14.96
2023-04-18T09:07:50.424Z,13.72
2023-04-18T09:10:31.004Z,13.03
2023-04-18T09:12:58.735Z,12.85
2023-04-18T09:15:27.299Z,13.25
2023-04-18T09:17:56.379Z,14.30
2023-04-18T09:20:43.938Z,16.22
2023-04-18T09:23:14.651Z,17.35
2023-04-18T09:25:44.265Z,16.47
2023-04-18T09:28:24.537Z,17.73
2023-04-18T09:30:52.504Z,17.02
2023-04-18T09:33:28.286Z,14.34
2023-04-18T09:35:56.025Z,13.78
2023-04-18T09:38:39.786Z,14.06
2023-04-18T09:41:10.578Z,13.72
2023-04-18T09:43:37.352Z,13.30
2023-04-18T09:46:04.452Z,13.20
2023-04-18T09:48:31.304Z,13.56
2023-04-18T09:51:01.342Z,13.39
2023-04-18T09:53:28.981Z,13.54
2023-04-18T09:55:57.496Z,13.33
2023-04-18T09:58:25.983Z,13.39
2023-04-18T10:00:54.150Z,13.61
2023-04-18T10:03:24.631Z,13.21
2023-04-18T10:05:51.733Z,13.43
2023-04-18T10:08:18.563Z,13.89
2023-04-18T10:10:45.209Z,14.54
2023-04-18T10:13:13.853Z,14.83
2023-04-18T10:15:43.655Z,14.84
2023-04-18T10:18:14.859Z,14.23
2023-04-18T10:20:42.064Z,13.79
2023-04-18T10:23:36.130Z,13.93
2023-04-18T10:26:07.541Z,14.07
2023-04-18T10:28:55.114Z,15.59
2023-04-18T10:31:23.550Z,15.38
2023-04-18T10:34:03.784Z,15.44
2023-04-18T10:37:03.697Z,15.02
2023-04-18T10:39:30.137Z,14.83
2023-04-18T10:41:56.522Z,16.12
2023-04-18T10:44:23.862Z,15.92
2023-04-18T10:46:50.874Z,15.54
2023-04-18T10:49:26.788Z,15.28
2023-04-18T10:51:58.717Z,14.61
2023-04-18T10:54:47.746Z,15.06
2023-04-18T10:57:15.252Z,14.93
2023-04-18T10:59:43.505Z,15.82
2023-04-18T11:02:30.790Z,14.82
2023-04-18T11:05:01.758Z,15.16
2023-04-18T11:07:39.336Z,14.69
2023-04-18T11:10:07.446Z,15.07
2023-04-18T11:12:36.452Z,14.74
2023-04-18T11:15:10.743Z,14.31
2023-04-18T11:17:39.960Z,14.28
2023-04-18T11:20:12.763Z,14.56
2023-04-18T11:22:59.558Z,14.24
2023-04-18T11:25:36.305Z,13.61
2023-04-18T11:28:04.592Z,13.84
2023-04-18T11:30:38.741Z,14.02
2023-04-18T11:33:11.701Z,14.10
2023-04-18T11:35:43.022Z,14.23
2023-04-18T11:38:12.754Z,14.21
2023-04-18T11:40:39.805Z,13.97
2023-04-18T11:43:07.374Z,13.55
2023-04-18T11:45:33.896Z,13.79
2023-04-18T11:48:00.835Z,13.42
2023-04-18T11:50:27.566Z,13.74
2023-04-18T11:52:54.981Z,13.78
2023-04-18T11:55:24.836Z,13.85
2023-04-18T11:57:56.171Z,14.13
2023-04-18T12:00:39.960Z,13.55
2023-04-18T12:03:15.667Z,13.57
2023-04-18T12:05:42.799Z,13.44
2023-04-18T12:08:11.915Z,13.48
2023-04-18T12:10:45.447Z,13.33
2023-04-18T12:13:12.006Z,13.38
2023-04-18T12:15:42.129Z,12.94
2023-04-18T12:18:08.996Z,13.18
2023-04-18T12:20:50.591Z,13.27
2023-04-18T12:23:40.472Z,12.69
2023-04-18T12:26:11.504Z,12.71
2023-04-18T12:28:38.099Z,12.92
2023-04-18T12:31:08.152Z,12.79
2023-04-18T12:33:36.688Z,13.14
2023-04-18T12:36:05.424Z,13.39
2023-04-18T12:38:32.025Z,13.57
2023-04-18T12:40:58.553Z,13.88
2023-04-18T12:43:25.714Z,13.50
2023-04-18T12:45:52.311Z,13.32
2023-04-18T12:48:18.860Z,13.41
2023-04-18T12:50:45.262Z,13.76
2023-04-18T12:53:11.720Z,15.17
2023-04-18T12:55:38.336Z,15.83
2023-04-18T12:58:04.778Z,15.87
2023-04-18T13:00:32.683Z,16.11
2023-04-18T13:02:59.726Z,16.59
2023-04-18T13:05:31.701Z,16.08
2023-04-18T13:08:15.179Z,15.32
2023-04-18T13:10:43.478Z,15.29
2023-04-18T13:13:10.144Z,15.76
2023-04-18T13:15:36.624Z,14.88
2023-04-18T13:18:06.047Z,14.80
2023-04-18T13:20:33.865Z,15.00
2023-04-18T13:23:01.822Z,15.16
2023-04-18T13:25:28.422Z,14.71
2023-04-18T13:27:55.371Z,14.77
2023-04-18T13:30:21.866Z,14.64
2023-04-18T13:32:48.390Z,14.74
2023-04-18T13:35:14.874Z,14.46
2023-04-18T13:37:41.507Z,14.54
2023-04-18T13:40:08.564Z,14.33
2023-04-18T13:42:36.853Z,14.40
2023-04-18T13:45:03.985Z,14.04
2023-04-18T13:47:30.556Z,13.74
2023-04-18T13:49:57.747Z,13.80
2023-04-18T13:52:24.647Z,14.08
2023-04-18T13:54:51.203Z,13.75
2023-04-18T13:57:17.638Z,13.87
2023-04-18T13:59:44.149Z,13.93
2023-04-18T14:02:10.984Z,13.93
2023-04-18T14:04:37.804Z,13.92
2023-04-18T14:07:06.423Z,13.82
2023-04-18T14:09:33.609Z,13.82
2023-04-18T14:12:00.189Z,14.12
2023-04-18T14:14:26.857Z,14.46
2023-04-18T14:16:54.034Z,14.42
2023-04-18T14:19:20.742Z,14.58
2023-04-18T14:21:48.258Z,15.34
2023-04-18T14:24:14.851Z,14.86
2023-04-18T14:26:41.610Z,14.60
2023-04-18T14:29:08.178Z,14.29
2023-04-18T14:31:34.671Z,14.36
2023-04-18T14:34:01.154Z,14.57
2023-04-18T14:36:27.691Z,15.35
2023-04-18T14:38:55.143Z,15.13
2023-04-18T14:41:21.815Z,14.79
2023-04-18T14:43:48.401Z,14.82
2023-04-18T14:46:18.059Z,14.70
2023-04-18T14:48:46.389Z,14.72
2023-04-18T14:51:14.580Z,15.02
2023-04-18T14:53:41.076Z,15.18
2023-04-18T14:56:07.819Z,15.28
2023-04-18T14:58:34.248Z,15.19
2023-04-18T15:01:00.791Z,14.90
2023-04-18T15:03:29.179Z,14.66
2023-04-18T15:05:56.344Z,14.66
2023-04-18T15:08:22.874Z,14.43
2023-04-18T15:10:49.354Z,14.74
2023-04-18T15:13:16.135Z,14.94
2023-04-18T15:15:42.611Z,14.76
2023-04-18T15:18:10.363Z,14.85
2023-04-18T15:20:37.299Z,14.88
2023-04-18T15:23:03.831Z,14.74
2023-04-18T15:25:31.020Z,14.80
2023-04-18T15:27:58.457Z,14.19
2023-04-18T15:30:25.415Z,14.11
2023-04-18T15:32:52.296Z,14.30
2023-04-18T15:35:18.956Z,14.65
2023-04-18T15:37:45.432Z,14.65
2023-04-18T15:40:16.129Z,14.54
2023-04-18T15:42:43.719Z,14.36
2023-04-18T15:45:10.965Z,14.19
2023-04-18T15:47:38.804Z,14.37
2023-04-18T15:50:06.003Z,14.62
2023-04-18T15:52:32.579Z,14.70
2023-04-18T15:54:59.109Z,14.61
2023-04-18T15:57:25.660Z,14.61
2023-04-18T15:59:54.795Z,14.60
2023-04-18T16:02:21.420Z,14.42
2023-04-18T16:04:50.193Z,14.20
2023-04-18T16:07:16.842Z,14.14
2023-04-18T16:09:43.413Z,13.89
2023-04-18T16:12:23.497Z,13.91
2023-04-18T16:15:11.047Z,14.03
2023-04-18T16:17:38.108Z,14.06
2023-04-18T16:20:09.117Z,14.05
2023-04-18T16:22:36.789Z,14.05
2023-04-18T16:25:04.196Z,13.83
2023-04-18T16:27:30.713Z,13.85
2023-04-18T16:29:57.295Z,13.99
2023-04-18T16:32:23.896Z,13.92
2023-04-18T16:34:50.705Z,13.77
2023-04-18T16:37:17.406Z,13.63
2023-04-18T16:39:43.838Z,13.60
2023-04-18T16:42:10.353Z,13.52
2023-04-18T16:44:36.776Z,13.54
2023-04-18T16:47:05.056Z,13.60
2023-04-18T16:49:31.694Z,13.55
2023-04-18T16:51:58.229Z,13.47
2023-04-18T16:54:24.862Z,13.44
2023-04-18T16:56:51.378Z,13.48
2023-04-18T16:59:17.926Z,13.51
2023-04-18T17:01:44.547Z,13.35
2023-04-18T17:04:11.199Z,13.38
2023-04-18T17:06:37.695Z,13.34
2023-04-18T17:09:06.480Z,13.23
2023-04-18T17:11:38.806Z,13.27
2023-04-18T17:14:05.968Z,13.37
2023-04-18T17:16:32.479Z,13.40
2023-04-18T17:18:59.012Z,13.30
2023-04-18T17:21:26.124Z,13.18
2023-04-18T17:23:53.408Z,13.23
2023-04-18T17:26:19.976Z,13.18
2023-04-18T17:28:46.414Z,13.20
2023-04-18T17:31:15.738Z,13.05
2023-04-18T17:33:42.939Z,13.01
2023-04-18T17:36:09.647Z,13.02
2023-04-18T17:38:36.132Z,12.97
2023-04-18T17:41:04.579Z,13.00
2023-04-18T17:43:31.017Z,12.99
2023-04-18T17:45:59.730Z,12.98
2023-04-18T17:48:26.272Z,12.94
2023-04-18T17:50:52.700Z,12.89
2023-04-18T17:53:19.161Z,12.83
2023-04-18T17:55:48.866Z,12.78
2023-04-18T17:58:16.879Z,12.74
2023-04-18T18:00:43.437Z,12.72
2023-04-18T18:03:13.577Z,12.60
2023-04-18T18:05:41.139Z,12.56
2023-04-18T18:08:07.734Z,12.62
2023-04-18T18:10:34.303Z,12.61
2023-04-18T18:13:00.787Z,12.56
2023-04-18T18:15:27.235Z,12.57
2023-04-18T18:17:54.886Z,12.46
2023-04-18T18:20:21.661Z,12.41
2023-04-18T18:22:48.500Z,12.24
2023-04-18T18:25:15.192Z,12.18
2023-04-18T18:27:41.646Z,12.14
2023-04-18T18:30:08.731Z,12.14
2023-04-18T18:32:35.229Z,11.90
2023-04-18T18:35:02.714Z,11.92
2023-04-18T18:37:29.172Z,11.88
2023-04-18T18:39:56.417Z,11.87
2023-04-18T18:42:23.021Z,11.85
2023-04-18T18:44:49.536Z,11.70
2023-04-18T18:47:17.293Z,11.74
2023-04-18T18:49:43.784Z,11.72
2023-04-18T18:52:10.368Z,11.69
2023-04-18T18:54:36.829Z,11.63
2023-04-18T18:57:03.321Z,11.44
2023-04-18T18:59:29.981Z,11.50
2023-04-18T19:01:56.568Z,11.46
2023-04-18T19:04:23.882Z,11.47
2023-04-18T19:06:50.524Z,11.41
2023-04-18T19:09:16.967Z,11.40
2023-04-18T19:11:43.505Z,11.44
2023-04-18T19:14:10.000Z,11.30
2023-04-18T19:16:36.680Z,11.18
2023-04-18T19:19:03.224Z,11.12
2023-04-18T19:21:29.995Z,11.06
2023-04-18T19:23:56.421Z,10.99
2023-04-18T19:26:23.130Z,11.06
2023-04-18T19:28:49.664Z,11.07
2023-04-18T19:31:16.101Z,11.16
2023-04-18T19:33:42.614Z,11.04
2023-04-18T19:36:09.273Z,11.10
2023-04-18T19:38:35.849Z,11.12
2023-04-18T19:41:02.332Z,11.01
2023-04-18T19:43:28.736Z,11.02
2023-04-18T19:45:55.519Z,10.85
2023-04-18T19:48:22.081Z,10.83
2023-04-18T19:50:49.638Z,10.87
2023-04-18T19:53:18.782Z,10.78
2023-04-18T19:55:45.369Z,10.86
2023-04-18T19:58:11.852Z,10.82
2023-04-18T20:00:38.352Z,10.67
2023-04-18T20:03:05.116Z,10.67
2023-04-18T20:05:31.895Z,10.80
2023-04-18T20:07:58.379Z,10.77
2023-04-18T20:10:24.820Z,10.72
2023-04-18T20:12:51.389Z,10.79
2023-04-18T20:15:18.006Z,10.65
2023-04-18T20:17:44.484Z,10.61
2023-04-18T20:20:11.536Z,10.56
2023-04-18T20:22:40.383Z,10.57
2023-04-18T20:25:07.199Z,10.47
2023-04-18T20:27:33.672Z,10.35
2023-04-18T20:30:00.197Z,10.42
2023-04-18T20:32:26.735Z,10.23
2023-04-18T20:34:53.560Z,10.29
2023-04-18T20:37:20.237Z,10.12
2023-04-18T20:39:47.474Z,10.19
2023-04-18T20:42:14.246Z,10.14
2023-04-18T20:44:46.615Z,10.10
2023-04-18T20:47:15.261Z,9.99
2023-04-18T20:49:42.314Z,10.12
2023-04-18T20:52:13.445Z,10.00
2023-04-18T20:54:41.085Z,9.99
2023-04-18T20:57:07.974Z,10.00
2023-04-18T20:59:34.371Z,9.80
2023-04-18T21:02:01.009Z,9.93
2023-04-18T21:04:27.677Z,9.88
2023-04-18T21:06:54.295Z,9.90
2023-04-18T21:09:20.791Z,9.83
2023-04-18T21:11:47.241Z,9.84
2023-04-18T21:14:14.234Z,9.72
2023-04-18T21:16:41.028Z,9.77
2023-04-18T21:19:08.386Z,9.91
2023-04-18T21:21:35.141Z,9.86
2023-04-18T21:24:01.891Z,9.98
2023-04-18T21:26:28.722Z,9.98
2023-04-18T21:29:07.263Z,9.94
2023-04-18T21:31:35.006Z,9.81
2023-04-18T21:34:04.192Z,9.76
2023-04-18T21:36:31.833Z,9.72
2023-04-18T21:39:01.065Z,9.85
2023-04-18T21:41:27.845Z,9.73
2023-04-18T21:43:54.350Z,9.60
2023-04-18T21:46:21.059Z,9.55
2023-04-18T21:48:48.028Z,9.65
2023-04-18T21:51:16.289Z,9.64
2023-04-18T21:53:43.124Z,9.62
2023-04-18T21:56:09.966Z,9.63
2023-04-18T21:58:36.393Z,9.78
2023-04-18T22:01:03.353Z,9.62
2023-04-18T22:03:30.248Z,9.68
2023-04-18T22:05:57.481Z,9.59
2023-04-18T22:08:28.250Z,9.57
2023-04-18T22:10:56.049Z,9.57
2023-04-18T22:13:22.685Z,9.62
2023-04-18T22:15:49.942Z,9.61
2023-04-18T22:18:16.377Z,9.53
2023-04-18T22:20:43.084Z,9.54
2023-04-18T22:23:10.236Z,9.62
2023-04-18T22:25:37.084Z,9.58
2023-04-18T22:28:04.631Z,9.52
2023-04-18T22:30:31.794Z,9.46
2023-04-18T22:32:59.068Z,9.46
2023-04-18T22:35:26.524Z,9.34
2023-04-18T22:37:53.026Z,9.32
2023-04-18T22:40:19.555Z,9.27
2023-04-18T22:42:46.006Z,9.38
2023-04-18T22:45:13.556Z,9.37
2023-04-18T22:47:40.356Z,9.46
2023-04-18T22:50:07.899Z,9.35
2023-04-18T22:52:34.629Z,9.43
2023-04-18T22:55:04.649Z,9.41
2023-04-18T22:57:31.189Z,9.38
2023-04-18T22:59:57.698Z,9.55
2023-04-18T23:02:24.422Z,9.62
2023-04-18T23:04:51.149Z,9.66
2023-04-18T23:07:17.671Z,9.73
2023-04-18T23:09:44.155Z,9.71
2023-04-18T23:12:10.595Z,9.81
2023-04-18T23:14:37.213Z,9.85
2023-04-18T23:17:03.654Z,9.91
2023-04-18T23:19:30.120Z,9.77
2023-04-18T23:21:56.576Z,9.92
2023-04-18T23:24:22.979Z,9.92
2023-04-18T23:26:49.395Z,9.90
2023-04-18T23:29:15.912Z,9.93
2023-04-18T23:31:42.432Z,9.93
2023-04-18T23:34:10.003Z,9.98
2023-04-18T23:36:37.175Z,9.98
2023-04-18T23:39:04.123Z,9.92
2023-04-18T23:41:30.735Z,10.05
2023-04-18T23:43:57.234Z,9.93
2023-04-18T23:46:23.733Z,10.02
2023-04-18T23:48:50.275Z,10.10
2023-04-18T23:51:16.701Z,10.09
2023-04-18T23:53:43.177Z,10.02
2023-04-18T23:56:09.753Z,10.15
2023-04-18T23:58:36.209Z,10.11
